sensor_id;sensor_type;location;lat;lon;timestamp;pressure;altitude;pressure_sealevel;temperature;humidity
46382;BME280;66809;52.974;-2.514;2023-02-13T09:57:14;1025.5546727726291;;;5.386998661446441;35.88083191004315
46382;BME280;66809;52.974;-2.514;2023-02-13T09:59:18;1025.5533689354963;;;5.399151774352498;35.95619122845985
46382;BME280;66809;52.974;-2.514;2023-02-13T10:01:17;1025.5553848433603;;;5.403343313725808;35.97293144289096
46382;BME280;66809;52.974;-2.514;2023-02-13T10:03:17;1025.5593285790135;;;5.40932130605173;35.969782459721095
46382;BME280;66809;52.974;-2.514;2023-02-13T10:05:18;1025.5632607138689;;;5.3998880196007875;35.98744297756974
46382;BME280;66809;52.974;-2.514;2023-02-13T10:07:15;1025.566311295284;;;5.371223605283078;36.005934040382556
46382;BME280;66809;52.974;-2.514;2023-02-13T10:09:14;1025.5696318898238;;;5.339691020527663;35.98780324672554
46382;BME280;66809;52.974;-2.514;2023-02-13T10:11:15;1025.576413699039;;;5.316992727687812;35.97654959031264
46382;BME280;66809;52.974;-2.514;2023-02-13T10:13:22;1025.5821606934924;;;5.299853885909482;35.96188039041048
46382;BME280;66809;52.974;-2.514;2023-02-13T10:15:16;1025.5833641736695;;;5.2869618129971405;35.952074536711315
46382;BME280;66809;52.974;-2.514;2023-02-13T10:17:11;1025.5856243182877;;;5.273907468129964;35.948377536895414
46382;BME280;66809;52.974;-2.514;2023-02-13T10:19:15;1025.5882256883888;;;5.2576724381378055;35.93611079315656
46382;BME280;66809;52.974;-2.514;2023-02-13T10:21:08;1025.5883565364654;;;5.253100762904836;35.922538303041826
46382;BME280;66809;52.974;-2.514;2023-02-13T10:23:17;1025.588753335578;;;5.245076810473071;35.90222644298037
46382;BME280;66809;52.974;-2.514;2023-02-13T10:25:11;1025.5868967795927;;;5.25852909076246;35.883047004648645
46382;BME280;66809;52.974;-2.514;2023-02-13T10:27:17;1025.5843511648677;;;5.266032604232539;35.86578073572117
46382;BME280;66809;52.974;-2.514;2023-02-13T10:29:13;1025.582407761881;;;5.273290201443228;35.8568222282447
46382;BME280;66809;52.974;-2.514;2023-02-13T10:31:10;1025.5802819513306;;;5.278788496651263;35.837969330958366
46382;BME280;66809;52.974;-2.514;2023-02-13T10:33:13;1025.5785499342412;;;5.286116493111761;35.82249843845913
46382;BME280;66809;52.974;-2.514;2023-02-13T10:35:17;1025.575804505036;;;5.295592137638656;35.81783834391541
46382;BME280;66809;52.974;-2.514;2023-02-13T10:37:12;1025.5739302012394;;;5.3048735452567835;35.81983298314474
46382;BME280;66809;52.974;-2.514;2023-02-13T10:39:21;1025.571905916421;;;5.31856947627525;35.80531321657789
46382;BME280;66809;52.974;-2.514;2023-02-13T10:41:22;1025.5708995093119;;;5.330616893430263;35.79423906878312
46382;BME280;66809;52.974;-2.514;2023-02-13T10:43:08;1025.5702341073682;;;5.336500075496004;35.79473187225131
46382;BME280;66809;52.974;-2.514;2023-02-13T10:45:19;1025.569849297387;;;5.349270429816351;35.79633621260602
46382;BME280;66809;52.974;-2.514;2023-02-13T10:47:17;1025.5696400197166;;;5.28120155839737;35.78849836788098
46382;BME280;66809;52.974;-2.514;2023-02-13T10:49:20;1025.5691219624355;;;5.319103672524138;35.79320718804102
46382;BME280;66809;52.974;-2.514;2023-02-13T10:51:12;1025.5668367209155;;;5.359797670251497;35.79786560141227
46382;BME280;66809;52.974;-2.514;2023-02-13T10:53:14;1025.5632762570685;;;5.404174319122466;35.797762253365896
46382;BME280;66809;52.974;-2.514;2023-02-13T10:55:18;1025.5585537315758;;;5.448110928756725;35.794668899895555
46382;BME280;66809;52.974;-2.514;2023-02-13T10:57:12;1025.5570061094197;;;5.470443900593306;35.77852989395771
46382;BME280;66809;52.974;-2.514;2023-02-13T10:59:22;1025.5541769889517;;;5.500824081038382;35.728371837432846
46382;BME280;66809;52.974;-2.514;2023-02-13T11:01:11;1025.5500121096227;;;5.535236266520032;35.68810776099878
46382;BME280;66809;52.974;-2.514;2023-02-13T11:03:16;1025.5469146215248;;;5.575586678474695;35.64065335242546
46382;BME280;66809;52.974;-2.514;2023-02-13T11:05:15;1025.5439965022138;;;5.620652481803884;35.59624521528016
46382;BME280;66809;52.974;-2.514;2023-02-13T11:07:13;1025.5409626315382;;;5.670529617027322;35.5458451924117
46382;BME280;66809;52.974;-2.514;2023-02-13T11:09:07;1025.5364336941434;;;5.726446032332733;35.49651714732381
46382;BME280;66809;52.974;-2.514;2023-02-13T11:11:27;1025.5300567695353;;;5.7924485562519505;35.4371307437789
46382;BME280;66809;52.974;-2.514;2023-02-13T11:13:15;1025.525240946747;;;5.8637453047685675;35.39406644591723
46382;BME280;66809;52.974;-2.514;2023-02-13T11:15:20;1025.5230956852104;;;5.938497566854928;35.32832696718858
46382;BME280;66809;52.974;-2.514;2023-02-13T11:17:16;1025.5186514120373;;;6.020690875838089;35.25051246824607
46382;BME280;66809;52.974;-2.514;2023-02-13T11:19:15;1025.5132745380263;;;6.109487867008284;35.18030302118892
46382;BME280;66809;52.974;-2.514;2023-02-13T11:21:10;1025.5090417557665;;;6.191655331554538;35.10136363771935
46382;BME280;66809;52.974;-2.514;2023-02-13T11:23:18;1025.5040243481722;;;6.278371667559489;35.022143667401146
46382;BME280;66809;52.974;-2.514;2023-02-13T11:25:16;1025.5004331254677;;;6.353023291171894;34.94090912044837
46382;BME280;66809;52.974;-2.514;2023-02-13T11:27:09;1025.4981364263717;;;6.437367781565263;34.857185409259145
46382;BME280;66809;52.974;-2.514;2023-02-13T11:29:16;1025.4957525529705;;;6.5231565750666;34.780905557029385
46382;BME280;66809;52.974;-2.514;2023-02-13T11:31:11;1025.4922913625512;;;6.611674932014101;34.67684560389581
46382;BME280;66809;52.974;-2.514;2023-02-13T11:33:21;1025.4887016148812;;;6.700089244565317;34.565270258641014
46382;BME280;66809;52.974;-2.514;2023-02-13T11:35:39;1025.4869352058195;;;6.793322807439092;34.45141207282435
46382;BME280;66809;52.974;-2.514;2023-02-13T11:37:15;1025.4839798371418;;;6.885479196439056;34.31486349098923
46382;BME280;66809;52.974;-2.514;2023-02-13T11:39:20;1025.4810212271343;;;6.9749822452071095;34.18918768451553
46382;BME280;66809;52.974;-2.514;2023-02-13T11:41:10;1025.4773493410996;;;7.067118844584082;34.0734122435164
46382;BME280;66809;52.974;-2.514;2023-02-13T11:43:13;1025.473638304453;;;7.17267069043859;33.96933586433952
46382;BME280;66809;52.974;-2.514;2023-02-13T11:45:19;1025.4675513884442;;;7.274268137902343;33.83119907658242
46382;BME280;66809;52.974;-2.514;2023-02-13T11:47:07;1025.4604883816535;;;7.3855701726546785;33.71373258280823
46382;BME280;66809;52.974;-2.514;2023-02-13T11:49:16;1025.4531626671692;;;7.49168920102018;33.5713413284359
46382;BME280;66809;52.974;-2.514;2023-02-13T11:51:07;1025.447038096985;;;7.598901060189143;33.42177459817352
46382;BME280;66809;52.974;-2.514;2023-02-13T11:53:17;1025.4404995744922;;;7.694892222301488;33.27304690739728
46382;BME280;66809;52.974;-2.514;2023-02-13T11:55:25;1025.43466116449;;;7.784303087080371;33.11050363715057
46382;BME280;66809;52.974;-2.514;2023-02-13T11:57:19;1025.4269946985637;;;7.872656869614672;32.97644371466584
46382;BME280;66809;52.974;-2.514;2023-02-13T11:59:12;1025.4197531492111;;;7.954554194541695;32.88350040497627
46382;BME280;66809;52.974;-2.514;2023-02-13T12:01:13;1025.413582804686;;;8.023063138095424;32.788408406774266
46382;BME280;66809;52.974;-2.514;2023-02-13T12:03:26;1025.403323311033;;;8.088154857024632;32.69381614640411
46382;BME280;66809;52.974;-2.514;2023-02-13T12:05:16;1025.3906731121876;;;8.152814082425959;32.58484178042716
46382;BME280;66809;52.974;-2.514;2023-02-13T12:07:14;1025.379832898971;;;8.220133751956618;32.50159603071374
46382;BME280;66809;52.974;-2.514;2023-02-13T12:09:11;1025.3699786903887;;;8.285507264429844;32.44001350696853
46382;BME280;66809;52.974;-2.514;2023-02-13T12:11:17;1025.3588823837053;;;8.34003403371266;32.35163406397022
46382;BME280;66809;52.974;-2.514;2023-02-13T12:13:15;1025.3448141672336;;;8.394189896815298;32.27548685603356
46382;BME280;66809;52.974;-2.514;2023-02-13T12:15:17;1025.3285883361573;;;8.443392004084533;32.20258883647055
46382;BME280;66809;52.974;-2.514;2023-02-13T12:17:12;1025.313555897331;;;8.481283928055904;32.13906822215245
46382;BME280;66809;52.974;-2.514;2023-02-13T12:19:11;1025.3000467473105;;;8.515839525914242;32.05878921918151
46382;BME280;66809;52.974;-2.514;2023-02-13T12:21:15;1025.2883770353262;;;8.551873559299786;31.997182736510645
46382;BME280;66809;52.974;-2.514;2023-02-13T12:23:16;1025.276979185481;;;8.588907611952806;31.959665995477504
46382;BME280;66809;52.974;-2.514;2023-02-13T12:25:20;1025.2652982656175;;;8.624348065184765;31.923375547625643
46382;BME280;66809;52.974;-2.514;2023-02-13T12:27:11;1025.2512587875347;;;8.656089225694792;31.888492514133677
46382;BME280;66809;52.974;-2.514;2023-02-13T12:29:20;1025.2378442239683;;;8.691426026283219;31.84822700834983
46382;BME280;66809;52.974;-2.514;2023-02-13T12:31:23;1025.2246292641441;;;8.72192821414622;31.85010669674931
46382;BME280;66809;52.974;-2.514;2023-02-13T12:33:14;1025.2126119980392;;;8.750290477811427;31.8334291549526
46382;BME280;66809;52.974;-2.514;2023-02-13T12:35:24;1025.2003087742476;;;8.773451744668792;31.82121050376635
46382;BME280;66809;52.974;-2.514;2023-02-13T12:37:16;1025.1889042944097;;;8.799180764269815;31.819117996027714
46382;BME280;66809;52.974;-2.514;2023-02-13T12:39:17;1025.1766794130053;;;8.82301330518125;31.805190645824457
46382;BME280;66809;52.974;-2.514;2023-02-13T12:41:16;1025.1617170749;;;8.846992599990777;31.771015478110655
46382;BME280;66809;52.974;-2.514;2023-02-13T12:43:21;1025.1463670454132;;;8.859379934768635;31.725502751311467
46382;BME280;66809;52.974;-2.514;2023-02-13T12:45:16;1025.1322983101609;;;8.877524931251523;31.71653139898701
46382;BME280;66809;52.974;-2.514;2023-02-13T12:47:14;1025.119672249091;;;8.882447708145978;31.68324444980039
46382;BME280;66809;52.974;-2.514;2023-02-13T12:49:16;1025.1072051577612;;;8.900150049884058;31.6497415339142
46382;BME280;66809;52.974;-2.514;2023-02-13T12:51:18;1025.0951682202092;;;8.90797358610303;31.64195109009298
46382;BME280;66809;52.974;-2.514;2023-02-13T12:53:19;1025.0842475306238;;;8.91107396259988;31.64657036423888
46382;BME280;66809;52.974;-2.514;2023-02-13T12:55:21;1025.0731605442538;;;8.916039683546533;31.65443241494999
46382;BME280;66809;52.974;-2.514;2023-02-13T12:57:19;1025.0638787001433;;;8.937262820648767;31.648806996113347
46382;BME280;66809;52.974;-2.514;2023-02-13T12:59:12;1025.0532841290426;;;8.949499368483567;31.603219730935912
46382;BME280;66809;52.974;-2.514;2023-02-13T13:01:13;1025.0397030390309;;;8.974703263969419;31.57006138859339
46382;BME280;66809;52.974;-2.514;2023-02-13T13:03:22;1025.027584707493;;;8.997991842978164;31.55098090668355
46382;BME280;66809;52.974;-2.514;2023-02-13T13:05:16;1025.0158419987397;;;9.012954638849104;31.529139169241486
46382;BME280;66809;52.974;-2.514;2023-02-13T13:07:21;1025.0003648845964;;;9.03491915823184;31.492651296611474
46382;BME280;66809;52.974;-2.514;2023-02-13T13:09:22;1024.984516063486;;;9.049287523897075;31.45760742014185
46382;BME280;66809;52.974;-2.514;2023-02-13T13:11:16;1024.96849916791;;;9.06252831754947;31.453224962943843
46382;BME280;66809;52.974;-2.514;2023-02-13T13:13:16;1024.9521542323241;;;9.074704005329798;31.413467403201974
46382;BME280;66809;52.974;-2.514;2023-02-13T13:15:12;1024.9350669265157;;;9.08202524204254;31.38797073745478
46382;BME280;66809;52.974;-2.514;2023-02-13T13:17:12;1024.9181191859868;;;9.09561790768038;31.36830617011807
46382;BME280;66809;52.974;-2.514;2023-02-13T13:19:12;1024.9005403170397;;;9.106762347300881;31.382884032972665
46382;BME280;66809;52.974;-2.514;2023-02-13T13:21:14;1024.8800669958005;;;9.110542329902055;31.378349963113237
46382;BME280;66809;52.974;-2.514;2023-02-13T13:23:10;1024.8605664635493;;;9.111006392906262;31.351110585738674
46382;BME280;66809;52.974;-2.514;2023-02-13T13:25:12;1024.8397638621557;;;9.109187126412909;31.359437798680535
46382;BME280;66809;52.974;-2.514;2023-02-13T13:27:13;1024.8194343670964;;;9.109897651974645;31.345078414570995
46382;BME280;66809;52.974;-2.514;2023-02-13T13:29:12;1024.7968637763704;;;9.104746336873946;31.31595766627652
46382;BME280;66809;52.974;-2.514;2023-02-13T13:31:07;1024.7739083083195;;;9.101568748652257;31.278114802641976
46382;BME280;66809;52.974;-2.514;2023-02-13T13:33:12;1024.749549229418;;;9.096155790891016;31.26601743310897
46382;BME280;66809;52.974;-2.514;2023-02-13T13:35:12;1024.725541070199;;;9.08435922079244;31.239412127673955
46382;BME280;66809;52.974;-2.514;2023-02-13T13:37:11;1024.7011898884916;;;9.068562081867585;31.233798837392058
46382;BME280;66809;52.974;-2.514;2023-02-13T13:39:15;1024.6778625536333;;;9.05304730003182;31.233458397381117
46382;BME280;66809;52.974;-2.514;2023-02-13T13:41:13;1024.6560770665278;;;9.03378680856308;31.241339754383812
46382;BME280;66809;52.974;-2.514;2023-02-13T13:43:16;1024.6330305891915;;;9.018206168900862;31.246957529993
46382;BME280;66809;52.974;-2.514;2023-02-13T13:45:20;1024.611244722461;;;8.994878975819065;31.26798946673322
46382;BME280;66809;52.974;-2.514;2023-02-13T13:47:18;1024.590065439528;;;8.976602960207737;31.29704374287852
46382;BME280;66809;52.974;-2.514;2023-02-13T13:49:15;1024.5681395144397;;;8.949263127882084;31.334821426160136
46382;BME280;66809;52.974;-2.514;2023-02-13T13:51:09;1024.546339906524;;;8.928288079524078;31.32621135967784
46382;BME280;66809;52.974;-2.514;2023-02-13T13:53:10;1024.524912853623;;;8.898060786906138;31.300834953438873
46382;BME280;66809;52.974;-2.514;2023-02-13T13:55:58;1024.5038854033933;;;8.868447306587038;31.30264660010587
46382;BME280;66809;52.974;-2.514;2023-02-13T13:57:08;1024.482063328466;;;8.827576640426749;31.298738521637
46382;BME280;66809;52.974;-2.514;2023-02-13T13:59:16;1024.4602715217038;;;8.793217519011419;31.314917967592198
46382;BME280;66809;52.974;-2.514;2023-02-13T14:01:24;1024.441496756593;;;8.75488440065244;31.33697021617003
46382;BME280;66809;52.974;-2.514;2023-02-13T14:03:20;1024.421965278036;;;8.709824485540013;31.355873579485767
46382;BME280;66809;52.974;-2.514;2023-02-13T14:05:20;1024.403883249241;;;8.671445346591847;31.388457920194906
46382;BME280;66809;52.974;-2.514;2023-02-13T14:07:21;1024.3868010412573;;;8.635019523888323;31.418349553111337
46382;BME280;66809;52.974;-2.514;2023-02-13T14:09:37;1024.3696383298436;;;8.599427821006604;31.453396785709845
46382;BME280;66809;52.974;-2.514;2023-02-13T14:11:26;1024.3530052819783;;;8.55889740123058;31.488166707453086
46382;BME280;66809;52.974;-2.514;2023-02-13T14:13:07;1024.3386619137998;;;8.512342332142675;31.518151622066913
46382;BME280;66809;52.974;-2.514;2023-02-13T14:15:49;1024.3267753771925;;;8.475604275651262;31.57772677368167
46382;BME280;66809;52.974;-2.514;2023-02-13T14:17:12;1024.3150292274427;;;8.432138465264888;31.628248879335157
46382;BME280;66809;52.974;-2.514;2023-02-13T14:19:23;1024.3028394403807;;;8.390031929098063;31.669084989528123
46382;BME280;66809;52.974;-2.514;2023-02-13T14:21:06;1024.2916716509728;;;8.353536716558027;31.714135054039005
46382;BME280;66809;52.974;-2.514;2023-02-13T14:23:25;1024.2795666478119;;;8.315624527158407;31.749049547212184
46382;BME280;66809;52.974;-2.514;2023-02-13T14:25:21;1024.2688558617635;;;8.286861116030888;31.75235092160821
46382;BME280;66809;52.974;-2.514;2023-02-13T14:27:19;1024.2585288829946;;;8.248342482324354;31.792407991214095
46382;BME280;66809;52.974;-2.514;2023-02-13T14:29:30;1024.249326783226;;;8.205502309428198;31.837884953047688
46382;BME280;66809;52.974;-2.514;2023-02-13T14:31:13;1024.2407285875604;;;8.161059773884217;31.875193512498353
46382;BME280;66809;52.974;-2.514;2023-02-13T14:33:19;1024.2317684450204;;;8.12827938869808;31.907349457786378
46382;BME280;66809;52.974;-2.514;2023-02-13T14:35:17;1024.2221954002027;;;8.094355679548064;31.95049360956349
46382;BME280;66809;52.974;-2.514;2023-02-13T14:37:29;1024.2107345842317;;;8.065563781777984;31.96976995309532
46382;BME280;66809;52.974;-2.514;2023-02-13T14:39:23;1024.1982452361613;;;8.024067820860747;31.994023765268132
46382;BME280;66809;52.974;-2.514;2023-02-13T14:41:41;1024.187583017928;;;7.990618955638272;32.037889886513526
46382;BME280;66809;52.974;-2.514;2023-02-13T14:43:21;1024.1774865697255;;;7.954613770891376;32.067363023944814
46382;BME280;66809;52.974;-2.514;2023-02-13T14:45:12;1024.1661304161105;;;7.917832932615658;32.08214875475575
46382;BME280;66809;52.974;-2.514;2023-02-13T14:47:17;1024.1525694312793;;;7.8779128508795635;32.105061077470715
46382;BME280;66809;52.974;-2.514;2023-02-13T14:49:11;1024.1385033372972;;;7.832114866430796;32.12650214863295
46382;BME280;66809;52.974;-2.514;2023-02-13T14:51:15;1024.123978472158;;;7.782721968313861;32.1983683296702
46382;BME280;66809;52.974;-2.514;2023-02-13T14:53:15;1024.1090153391626;;;7.743156561701947;32.26339300107153
46382;BME280;66809;52.974;-2.514;2023-02-13T14:55:13;1024.093361443807;;;7.715810037367381;32.32752537748965
46382;BME280;66809;52.974;-2.514;2023-02-13T14:57:14;1024.078514532163;;;7.688556172224324;32.39136168518044
46382;BME280;66809;52.974;-2.514;2023-02-13T14:59:12;1024.0636769726414;;;7.663279414969482;32.45928384981201
46382;BME280;66809;52.974;-2.514;2023-02-13T15:01:17;1024.0474013527735;;;7.636422791830088;32.51136966990802
46382;BME280;66809;52.974;-2.514;2023-02-13T15:03:19;1024.032265850833;;;7.618297584298288;32.56710725719812
46382;BME280;66809;52.974;-2.514;2023-02-13T15:05:12;1024.0179522349854;;;7.595511039440835;32.620486677578796
46382;BME280;66809;52.974;-2.514;2023-02-13T15:07:13;1024.004446310119;;;7.560942846048998;32.65405974777026
46382;BME280;66809;52.974;-2.514;2023-02-13T15:09:19;1023.9921882450288;;;7.526155102391711;32.68167172394349
46382;BME280;66809;52.974;-2.514;2023-02-13T15:11:07;1023.9799759133824;;;7.49626414444319;32.70864699051745
46382;BME280;66809;52.974;-2.514;2023-02-13T15:13:14;1023.9664768596384;;;7.465728489198673;32.766912484902925
46382;BME280;66809;52.974;-2.514;2023-02-13T15:15:23;1023.9523153353035;;;7.431515611586044;32.802478151121846
46382;BME280;66809;52.974;-2.514;2023-02-13T15:17:13;1023.9385895609573;;;7.408880556138532;32.832130847654945
46382;BME280;66809;52.974;-2.514;2023-02-13T15:19:14;1023.9244596059517;;;7.387983173046956;32.82062997735042
46382;BME280;66809;52.974;-2.514;2023-02-13T15:21:12;1023.9100068062493;;;7.366460235542143;32.83440504911092
46382;BME280;66809;52.974;-2.514;2023-02-13T15:23:07;1023.895395479309;;;7.346759260791157;32.85739040348655
46382;BME280;66809;52.974;-2.514;2023-02-13T15:25:08;1023.8808358520289;;;7.317380997632006;32.88165970852509
46382;BME280;66809;52.974;-2.514;2023-02-13T15:27:16;1023.8665449592231;;;7.298290814336668;32.894226707847224
46382;BME280;66809;52.974;-2.514;2023-02-13T15:29:14;1023.8519884223023;;;7.283185691007385;32.90655312674657
46382;BME280;66809;52.974;-2.514;2023-02-13T15:31:20;1023.8384296612189;;;7.268852190834653;32.93064280441219
46382;BME280;66809;52.974;-2.514;2023-02-13T15:33:16;1023.825176442061;;;7.250614850376324;32.96706937737473
46382;BME280;66809;52.974;-2.514;2023-02-13T15:35:21;1023.8112387008641;;;7.227040917658993;32.997384025398944
46382;BME280;66809;52.974;-2.514;2023-02-13T15:37:19;1023.7992906310784;;;7.203690959635493;33.03945705071803
46382;BME280;66809;52.974;-2.514;2023-02-13T15:39:15;1023.7876644818655;;;7.180838616055184;33.08667032263022
46382;BME280;66809;52.974;-2.514;2023-02-13T15:41:10;1023.7745356676938;;;7.160276685700335;33.11262659977104
46382;BME280;66809;52.974;-2.514;2023-02-13T15:43:20;1023.7636744532757;;;7.144739098198013;33.149632066915686
46382;BME280;66809;52.974;-2.514;2023-02-13T15:45:13;1023.7540302799273;;;7.125462528042173;33.18609647846362
46382;BME280;66809;52.974;-2.514;2023-02-13T15:47:15;1023.7457119725049;;;7.115160463353222;33.21403340942906
46382;BME280;66809;52.974;-2.514;2023-02-13T15:49:10;1023.7383581608102;;;7.109083541332423;33.25277886933779
46382;BME280;66809;52.974;-2.514;2023-02-13T15:51:07;1023.731073723858;;;7.107814041517884;33.27123847968026
46382;BME280;66809;52.974;-2.514;2023-02-13T15:53:12;1023.7237892744422;;;7.100075614211104;33.295909121615814
46382;BME280;66809;52.974;-2.514;2023-02-13T15:55:18;1023.7165745846792;;;7.091750241879623;33.295517579648624
46382;BME280;66809;52.974;-2.514;2023-02-13T15:57:10;1023.7080470485565;;;7.076095768368343;33.29325413776866
46382;BME280;66809;52.974;-2.514;2023-02-13T15:59:08;1023.6994148908719;;;7.055907919455289;33.2912365055928
46382;BME280;66809;52.974;-2.514;2023-02-13T16:01:07;1023.6902913543105;;;7.038030328342796;33.30492982646724
46382;BME280;66809;52.974;-2.514;2023-02-13T16:03:13;1023.6812625101284;;;7.023438741522697;33.31872896302887
46382;BME280;66809;52.974;-2.514;2023-02-13T16:05:08;1023.6701748905881;;;7.008611731908127;33.328856952129925
46382;BME280;66809;52.974;-2.514;2023-02-13T16:07:09;1023.6579974504492;;;6.999249272202271;33.360010538073034
46382;BME280;66809;52.974;-2.514;2023-02-13T16:09:22;1023.6446744842018;;;6.993238594577609;33.38133134134325
46382;BME280;66809;52.974;-2.514;2023-02-13T16:11:17;1023.6325358956627;;;6.987825242424068;33.41190348176327
46382;BME280;66809;52.974;-2.514;2023-02-13T16:13:15;1023.620082793335;;;6.97804026424293;33.422376269926275
46382;BME280;66809;52.974;-2.514;2023-02-13T16:15:15;1023.6063489679472;;;6.970920794952637;33.43094410108344
46382;BME280;66809;52.974;-2.514;2023-02-13T16:17:15;1023.591733584891;;;6.95271778902752;33.437308897278406
46382;BME280;66809;52.974;-2.514;2023-02-13T16:19:19;1023.576453411499;;;6.931047178570473;33.47503964906801
46382;BME280;66809;52.974;-2.514;2023-02-13T16:21:06;1023.5621598245441;;;6.9111881618156925;33.4999547410172
46382;BME280;66809;52.974;-2.514;2023-02-13T16:23:14;1023.5484722508057;;;6.891074287605819;33.53494924812838
46382;BME280;66809;52.974;-2.514;2023-02-13T16:25:16;1023.5336145248931;;;6.879691097576808;33.56451316483154
46382;BME280;66809;52.974;-2.514;2023-02-13T16:27:12;1023.5197585184676;;;6.859963372920849;33.58952398155562
46382;BME280;66809;52.974;-2.514;2023-02-13T16:29:08;1023.5077155054692;;;6.832886706162856;33.624551792256135
46382;BME280;66809;52.974;-2.514;2023-02-13T16:31:11;1023.4960141398864;;;6.807590722127193;33.6606756445095
46382;BME280;66809;52.974;-2.514;2023-02-13T16:33:20;1023.4847087170855;;;6.777594767300588;33.67881184273074
46382;BME280;66809;52.974;-2.514;2023-02-13T16:35:40;1023.4739111843895;;;6.759268634173477;33.700524582358014
46382;BME280;66809;52.974;-2.514;2023-02-13T16:37:26;1023.4634265586034;;;6.74066514297723;33.71167040249589
46382;BME280;66809;52.974;-2.514;2023-02-13T16:39:14;1023.4529111470744;;;6.729796520473716;33.73225227554616
46382;BME280;66809;52.974;-2.514;2023-02-13T16:41:29;1023.44365085525;;;6.707254359039817;33.75878404337501
46382;BME280;66809;52.974;-2.514;2023-02-13T16:43:43;1023.4323170271036;;;6.684573191568226;33.779737854413405
46382;BME280;66809;52.974;-2.514;2023-02-13T16:45:21;1023.4202446281184;;;6.6663254483976635;33.80179795235663
46382;BME280;66809;52.974;-2.514;2023-02-13T16:47:19;1023.4073938737231;;;6.635651060166731;33.83446022263887
46382;BME280;66809;52.974;-2.514;2023-02-13T16:49:15;1023.3935222610152;;;6.606664030068574;33.86147299006795
46382;BME280;66809;52.974;-2.514;2023-02-13T16:51:07;1023.3799515272177;;;6.569672289354126;33.87982329877555
46382;BME280;66809;52.974;-2.514;2023-02-13T16:53:06;1023.3675503115066;;;6.544065082245735;33.91190970894191
46382;BME280;66809;52.974;-2.514;2023-02-13T16:55:13;1023.3551727764266;;;6.508138949701449;33.96426332473799
46382;BME280;66809;52.974;-2.514;2023-02-13T16:57:18;1023.3448854360164;;;6.46688423969682;34.017447699915806
46382;BME280;66809;52.974;-2.514;2023-02-13T16:59:22;1023.3364135998836;;;6.43530620527722;34.06406581155569
46382;BME280;66809;52.974;-2.514;2023-02-13T17:01:13;1023.3305256688725;;;6.406156474575415;34.09457578728726
46382;BME280;66809;52.974;-2.514;2023-02-13T17:03:08;1023.3253375907809;;;6.3731216355358695;34.118400754904755
46382;BME280;66809;52.974;-2.514;2023-02-13T17:05:18;1023.3232906561167;;;6.348343055010699;34.142811335848585
46382;BME280;66809;52.974;-2.514;2023-02-13T17:07:11;1023.3231412641876;;;6.321791501406468;34.16201877877363
46382;BME280;66809;52.974;-2.514;2023-02-13T17:09:07;1023.3241338262521;;;6.297703567032629;34.173879070040165